Time;durP1;ratioP1;P1;durP2;ratioP2;P2;SDS_P1;SDS_P2;PMS_P1;PMS_P2;Temp;Humidity;BMP_temperature;BMP_pressure;BME280_temperature;BME280_humidity;BME280_pressure;Samples;Min_cycle;Max_cycle;Signal;HPM_P1;HPM_P2
2022/03/16 00:01:49;;;;;;;0.50;0.50;;;;;;;3.33;100.00;101155.44;5051760;28;20129;-80
2022/03/16 00:04:14;;;;;;;0.40;0.40;;;;;;;3.29;100.00;101161.97;5047242;28;20087;-81
2022/03/16 00:06:40;;;;;;;0.40;0.40;;;;;;;3.24;100.00;101150.84;5065060;28;20032;-80
2022/03/16 00:09:06;;;;;;;0.45;0.45;;;;;;;3.30;100.00;101161.00;5064449;28;20038;-82
2022/03/16 00:11:31;;;;;;;0.50;0.50;;;;;;;3.32;100.00;101159.06;5062835;28;20132;-81
2022/03/16 00:13:57;;;;;;;0.40;0.40;;;;;;;3.32;100.00;101158.22;5062383;28;20040;-83
2022/03/16 00:16:23;;;;;;;0.40;0.40;;;;;;;3.34;100.00;101157.16;5063482;28;20256;-81
2022/03/16 00:18:48;;;;;;;0.40;0.40;;;;;;;3.37;100.00;101161.38;5045134;28;20049;-79
2022/03/16 00:21:17;;;;;;;0.50;0.50;;;;;;;3.36;100.00;101146.38;5060974;28;20036;-80
2022/03/16 00:23:43;;;;;;;0.40;0.40;;;;;;;3.40;100.00;101154.00;5063215;28;20051;-79
2022/03/16 00:26:08;;;;;;;0.40;0.40;;;;;;;3.39;100.00;101156.78;5064665;28;20036;-82
2022/03/16 00:28:34;;;;;;;0.50;0.50;;;;;;;3.41;100.00;101157.50;5031645;28;20482;-79
2022/03/16 00:31:02;;;;;;;0.40;0.40;;;;;;;3.22;100.00;101123.53;5048521;28;20028;-82
2022/03/16 00:33:28;;;;;;;0.40;0.40;;;;;;;3.35;100.00;101153.50;5063516;28;20044;-79
2022/03/16 00:35:53;;;;;;;0.40;0.40;;;;;;;3.27;100.00;101143.47;5066208;28;20387;-81
2022/03/16 00:38:19;;;;;;;0.50;0.50;;;;;;;3.21;100.00;101143.13;5047817;28;20490;-80
2022/03/16 00:40:45;;;;;;;0.50;0.50;;;;;;;3.03;100.00;101145.38;5049450;28;20036;-82
2022/03/16 00:43:11;;;;;;;0.40;0.40;;;;;;;2.77;100.00;101139.38;5060313;28;20020;-79
2022/03/16 00:45:36;;;;;;;0.40;0.40;;;;;;;2.66;100.00;101148.16;5062751;28;20032;-82
2022/03/16 00:48:02;;;;;;;0.40;0.40;;;;;;;2.48;100.00;101136.25;5033278;28;20051;-80
2022/03/16 00:50:28;;;;;;;0.40;0.40;;;;;;;2.22;100.00;101127.56;5047378;28;20040;-80
2022/03/16 00:52:53;;;;;;;0.50;0.50;;;;;;;2.16;100.00;101152.75;5064568;28;20036;-79
2022/03/16 00:55:20;;;;;;;0.40;0.40;;;;;;;2.05;100.00;101148.22;5049381;28;20031;-80
2022/03/16 00:57:45;;;;;;;0.40;0.40;;;;;;;1.96;100.00;101151.56;5035884;28;20084;-80
2022/03/16 01:00:11;;;;;;;0.50;0.50;;;;;;;1.82;100.00;101149.03;5065502;28;20550;-80
2022/03/16 01:02:37;;;;;;;0.40;0.40;;;;;;;1.73;100.00;101154.03;5065603;28;20031;-80
2022/03/16 01:05:03;;;;;;;0.40;0.40;;;;;;;1.70;100.00;101154.25;5031728;28;20032;-80
2022/03/16 01:07:29;;;;;;;0.47;0.47;;;;;;;1.55;100.00;101142.06;5063865;28;20461;-80
2022/03/16 01:09:55;;;;;;;0.50;0.50;;;;;;;1.54;100.00;101159.78;5069459;28;20111;-79
2022/03/16 01:12:21;;;;;;;0.50;0.50;;;;;;;1.48;100.00;101162.88;5047800;28;20037;-80
2022/03/16 01:14:46;;;;;;;0.50;0.50;;;;;;;1.31;100.00;101152.59;5044195;28;20470;-80
2022/03/16 01:17:12;;;;;;;0.40;0.40;;;;;;;1.29;100.00;101157.97;5031769;28;20036;-79
2022/03/16 01:19:38;;;;;;;0.50;0.50;;;;;;;1.35;100.00;101169.13;5060285;28;20042;-80
2022/03/16 01:22:04;;;;;;;0.50;0.50;;;;;;;1.34;100.00;101181.53;5049766;28;20052;-80
2022/03/16 01:24:30;;;;;;;0.50;0.50;;;;;;;1.12;100.00;101162.78;5024724;28;20044;-80
2022/03/16 01:26:56;;;;;;;0.40;0.40;;;;;;;1.19;100.00;101180.78;5047331;28;20050;-80
2022/03/16 01:29:24;;;;;;;0.50;0.50;;;;;;;1.00;100.00;101159.13;5046579;28;20044;-80
2022/03/16 01:31:54;;;;;;;0.50;0.50;;;;;;;0.94;100.00;101178.09;5064985;28;20090;-80
2022/03/16 01:34:20;;;;;;;0.50;0.50;;;;;;;0.81;100.00;101172.78;5065297;28;20024;-79
2022/03/16 01:36:46;;;;;;;0.50;0.50;;;;;;;0.75;100.00;101187.28;5066394;28;20024;-80
2022/03/16 01:39:12;;;;;;;0.40;0.40;;;;;;;0.75;100.00;101184.63;5034192;28;20054;-80
2022/03/16 01:41:37;;;;;;;0.40;0.40;;;;;;;0.84;100.00;101189.28;5046502;28;20051;-79
2022/03/16 01:44:03;;;;;;;0.40;0.40;;;;;;;0.90;100.00;101195.13;5031342;28;20021;-80
2022/03/16 01:46:29;;;;;;;0.40;0.40;;;;;;;0.84;100.00;101196.41;5045940;28;20191;-80
2022/03/16 01:48:55;;;;;;;0.40;0.40;;;;;;;0.73;100.00;101191.81;5064036;28;20130;-80
2022/03/16 01:51:21;;;;;;;0.40;0.40;;;;;;;0.63;100.00;101186.28;5062721;28;20060;-80
2022/03/16 01:53:48;;;;;;;0.50;0.50;;;;;;;0.57;100.00;101176.09;5047062;28;20079;-80
2022/03/16 01:56:16;;;;;;;0.45;0.45;;;;;;;0.61;100.00;101204.06;5048628;28;20041;-80
2022/03/16 01:58:41;;;;;;;0.40;0.40;;;;;;;0.47;100.00;101193.53;5044972;28;20048;-80
2022/03/16 02:01:07;;;;;;;0.50;0.50;;;;;;;0.44;100.00;101197.22;5061900;28;20585;-80
2022/03/16 02:03:32;;;;;;;0.50;0.50;;;;;;;0.35;100.00;101186.41;5062279;28;20037;-81
2022/03/16 02:05:59;;;;;;;0.50;0.50;;;;;;;0.32;100.00;101187.44;5063019;28;20041;-80
2022/03/16 02:08:27;;;;;;;0.50;0.50;;;;;;;0.28;100.00;101188.59;5044946;28;20082;-80
2022/03/16 02:10:53;;;;;;;0.50;0.50;;;;;;;0.18;100.00;101193.59;5048042;28;20125;-80
2022/03/16 02:13:19;;;;;;;0.40;0.40;;;;;;;0.12;100.00;101201.09;5065100;28;20041;-80
2022/03/16 02:15:44;;;;;;;0.50;0.50;;;;;;;0.09;100.00;101202.13;5061025;28;20033;-80
2022/03/16 02:18:10;;;;;;;0.50;0.50;;;;;;;-0.04;100.00;101202.06;5046437;28;20029;-80
2022/03/16 02:20:37;;;;;;;0.40;0.40;;;;;;;-0.21;100.00;101191.72;5059498;28;20155;-81
2022/03/16 02:23:05;;;;;;;0.40;0.40;;;;;;;-0.20;100.00;101216.34;5060293;28;20474;-81
2022/03/16 02:25:31;;;;;;;0.50;0.50;;;;;;;-0.38;100.00;101218.31;5062726;28;20032;-80
2022/03/16 02:28:00;;;;;;;0.40;0.40;;;;;;;-0.38;100.00;101218.31;5047046;28;20071;-79
2022/03/16 02:30:27;;;;;;;0.45;0.45;;;;;;;-0.48;100.00;101221.53;5043467;28;20105;-80
2022/03/16 02:32:53;;;;;;;0.40;0.40;;;;;;;-0.61;100.00;101225.00;5049176;28;20118;-79
2022/03/16 02:35:19;;;;;;;0.40;0.40;;;;;;;-0.74;100.00;101228.38;5032001;28;20040;-79
2022/03/16 02:37:45;;;;;;;0.40;0.40;;;;;;;-0.73;100.00;101219.50;5068339;28;20058;-79
2022/03/16 02:40:17;;;;;;;0.50;0.50;;;;;;;-0.73;100.00;101227.44;5053502;28;20474;-80
2022/03/16 02:42:42;;;;;;;0.40;0.40;;;;;;;-0.77;100.00;101233.81;5066295;28;20040;-80
2022/03/16 02:45:08;;;;;;;0.50;0.50;;;;;;;-0.76;100.00;101224.97;5062258;28;20079;-79
2022/03/16 02:47:34;;;;;;;0.40;0.40;;;;;;;-0.88;100.00;101230.97;5063199;28;20033;-79
2022/03/16 02:50:02;;;;;;;0.50;0.50;;;;;;;-0.98;100.00;101229.81;5035047;28;20117;-80
2022/03/16 02:52:28;;;;;;;0.50;0.50;;;;;;;-1.18;100.00;101218.66;5065525;28;20036;-79
2022/03/16 02:54:54;;;;;;;0.40;0.40;;;;;;;-1.16;100.00;101235.25;5068722;28;20097;-79
2022/03/16 02:57:19;;;;;;;0.50;0.50;;;;;;;-1.08;100.00;101229.53;5047477;28;20025;-80
2022/03/16 02:59:45;;;;;;;0.50;0.50;;;;;;;-0.95;100.00;101237.56;5068182;28;20087;-80
2022/03/16 03:02:11;;;;;;;0.40;0.40;;;;;;;-0.92;100.00;101240.88;5052083;28;20386;-80
2022/03/16 03:04:37;;;;;;;0.50;0.50;;;;;;;-1.04;100.00;101238.94;5034933;28;20040;-81
2022/03/16 03:07:03;;;;;;;0.40;0.40;;;;;;;-1.26;100.00;101241.13;5062541;28;20040;-80
2022/03/16 03:09:29;;;;;;;0.50;0.50;;;;;;;-1.44;100.00;101241.22;5034529;28;20481;-80
2022/03/16 03:11:56;;;;;;;0.50;0.50;;;;;;;-1.50;100.00;101244.22;5064280;28;20032;-81
2022/03/16 03:14:23;;;;;;;0.40;0.40;;;;;;;-1.50;100.00;101254.78;5063600;28;20048;-80
2022/03/16 03:16:49;;;;;;;0.50;0.50;;;;;;;-1.59;100.00;101252.63;5069877;28;20043;-80
2022/03/16 03:19:14;;;;;;;0.50;0.50;;;;;;;-1.69;100.00;101254.97;5060487;28;20029;-80
2022/03/16 03:21:40;;;;;;;0.40;0.40;;;;;;;-1.68;100.00;101258.44;5070729;28;20028;-80
2022/03/16 03:24:06;;;;;;;0.50;0.50;;;;;;;-1.65;100.00;101256.47;5049596;28;20033;-80
2022/03/16 03:26:32;;;;;;;0.40;0.40;;;;;;;-1.61;100.00;101252.75;5050822;28;20500;-80
2022/03/16 03:28:58;;;;;;;0.50;0.50;;;;;;;-1.59;100.00;101261.44;5049696;28;20091;-80
2022/03/16 03:31:23;;;;;;;0.50;0.50;;;;;;;-1.63;100.00;101267.78;5056427;28;20117;-80
2022/03/16 03:33:49;;;;;;;0.50;0.50;;;;;;;-1.59;100.00;101263.19;5068016;28;20462;-79
2022/03/16 03:36:14;;;;;;;0.50;0.50;;;;;;;-1.62;100.00;101252.81;5052674;28;20097;-79
2022/03/16 03:38:40;;;;;;;0.40;0.40;;;;;;;-1.58;100.00;101268.38;5051538;28;20044;-80
2022/03/16 03:41:05;;;;;;;0.40;0.40;;;;;;;-1.72;100.00;101263.03;5066266;28;20032;-80
2022/03/16 03:43:31;;;;;;;0.40;0.40;;;;;;;-1.77;100.00;101263.28;5033038;28;20198;-79
2022/03/16 03:45:56;;;;;;;0.50;0.50;;;;;;;-1.75;100.00;101275.53;5070909;28;20355;-79
2022/03/16 03:48:22;;;;;;;0.50;0.50;;;;;;;-1.85;100.00;101276.03;5070401;28;20444;-79
2022/03/16 03:50:47;;;;;;;0.50;0.50;;;;;;;-1.72;100.00;101280.63;5067101;28;20496;-80
2022/03/16 03:53:14;;;;;;;0.50;0.50;;;;;;;-1.58;100.00;101278.09;5064726;28;20036;-80
2022/03/16 03:55:39;;;;;;;0.50;0.50;;;;;;;-1.50;100.00;101275.88;5034032;28;20119;-80
2022/03/16 03:58:05;;;;;;;0.50;0.50;;;;;;;-1.39;100.00;101281.41;5050351;28;20170;-80
2022/03/16 04:00:30;;;;;;;0.50;0.50;;;;;;;-1.15;100.00;101289.72;5063178;28;20037;-79
2022/03/16 04:02:56;;;;;;;0.50;0.50;;;;;;;-1.05;100.00;101286.56;5052241;28;20028;-80
2022/03/16 04:05:21;;;;;;;0.50;0.50;;;;;;;-1.07;100.00;101288.44;5068531;28;20514;-79
2022/03/16 04:07:50;;;;;;;0.50;0.50;;;;;;;-1.37;100.00;101247.88;5067277;28;20545;-79
2022/03/16 04:10:16;;;;;;;0.50;0.50;;;;;;;-1.26;100.00;101280.72;5068746;28;20032;-80
2022/03/16 04:12:42;;;;;;;0.50;0.50;;;;;;;-1.27;100.00;101279.00;5066352;28;20024;-80
2022/03/16 04:15:09;;;;;;;0.43;0.43;;;;;;;-1.28;100.00;101274.66;5033555;28;20040;-80
2022/03/16 04:17:34;;;;;;;0.50;0.50;;;;;;;-1.31;100.00;101274.84;5049382;28;20075;-80
2022/03/16 04:20:00;;;;;;;0.50;0.50;;;;;;;-1.40;100.00;101277.06;5045841;28;20059;-80
2022/03/16 04:22:26;;;;;;;0.50;0.50;;;;;;;-1.61;100.00;101258.03;5045291;28;20037;-80
2022/03/16 04:24:52;;;;;;;0.50;0.50;;;;;;;-1.55;100.00;101288.47;5064056;28;20074;-80
2022/03/16 04:27:18;;;;;;;0.50;0.50;;;;;;;-1.63;100.00;101283.63;5047096;28;20452;-80
2022/03/16 04:29:43;;;;;;;0.50;0.50;;;;;;;-1.73;100.00;101276.28;5029070;28;20443;-80
2022/03/16 04:32:09;;;;;;;0.50;0.50;;;;;;;-1.79;100.00;101285.41;5065341;28;20035;-80
2022/03/16 04:34:34;;;;;;;0.40;0.40;;;;;;;-1.81;100.00;101281.97;5046743;28;20036;-80
2022/03/16 04:37:00;;;;;;;0.43;0.43;;;;;;;-1.83;100.00;101289.97;5040055;28;20398;-80
2022/03/16 04:39:26;;;;;;;0.40;0.40;;;;;;;-1.91;100.00;101294.78;5032348;28;20098;-80
2022/03/16 04:41:51;;;;;;;0.40;0.40;;;;;;;-2.02;100.00;101290.09;5063886;28;20036;-80
2022/03/16 04:44:17;;;;;;;0.40;0.40;;;;;;;-2.03;100.00;101306.84;5063089;28;20044;-80
2022/03/16 04:46:42;;;;;;;0.50;0.50;;;;;;;-2.19;100.00;101302.50;5065655;28;20486;-80
2022/03/16 04:49:08;;;;;;;0.50;0.50;;;;;;;-2.18;100.00;101310.28;5030762;28;20105;-80
2022/03/16 04:51:33;;;;;;;0.45;0.45;;;;;;;-2.11;100.00;101310.84;5067530;28;20419;-80
2022/03/16 04:53:59;;;;;;;0.50;0.50;;;;;;;-2.17;100.00;101303.25;5049087;28;20468;-81
2022/03/16 04:56:25;;;;;;;0.50;0.50;;;;;;;-2.11;100.00;101326.66;5030969;28;20032;-80
2022/03/16 04:58:50;;;;;;;0.50;0.50;;;;;;;-2.27;100.00;101322.19;5052150;28;20046;-80
2022/03/16 05:01:16;;;;;;;0.50;0.50;;;;;;;-2.28;100.00;101330.16;5034189;28;20128;-80
2022/03/16 05:03:42;;;;;;;0.50;0.50;;;;;;;-2.44;100.00;101324.81;5048829;28;20119;-80
2022/03/16 05:06:07;;;;;;;0.50;0.50;;;;;;;-2.38;100.00;101329.78;5048912;28;20034;-80
2022/03/16 05:08:35;;;;;;;0.50;0.50;;;;;;;-2.33;100.00;101326.91;5067816;28;20474;-81
2022/03/16 05:11:02;;;;;;;0.40;0.40;;;;;;;-2.27;100.00;101326.59;5045982;28;20055;-80
2022/03/16 05:13:28;;;;;;;0.50;0.50;;;;;;;-2.30;100.00;101334.63;5062664;28;20162;-80
2022/03/16 05:15:54;;;;;;;0.50;0.50;;;;;;;-2.36;100.00;101327.91;5064559;28;20085;-80
2022/03/16 05:18:19;;;;;;;0.50;0.50;;;;;;;-2.47;100.00;101323.19;5065382;28;20456;-80
2022/03/16 05:20:45;;;;;;;0.50;0.50;;;;;;;-2.59;100.00;101337.00;5065030;28;20074;-81
2022/03/16 05:23:11;;;;;;;0.50;0.50;;;;;;;-2.49;100.00;101340.00;5057425;28;20052;-81
2022/03/16 05:25:36;;;;;;;0.50;0.50;;;;;;;-2.52;100.00;101337.53;5064461;28;20418;-81
2022/03/16 05:28:02;;;;;;;0.50;0.50;;;;;;;-2.39;100.00;101346.50;5031347;28;20382;-81
2022/03/16 05:30:28;;;;;;;0.50;0.50;;;;;;;-2.41;100.00;101350.13;5030270;28;20041;-81
2022/03/16 05:33:00;;;;;;;0.50;0.50;;;;;;;-2.46;100.00;101353.88;5065115;28;20103;-81
2022/03/16 05:35:26;;;;;;;0.50;0.50;;;;;;;-2.60;100.00;101342.31;5047161;28;20047;-81
2022/03/16 05:37:52;;;;;;;0.50;0.50;;;;;;;-2.69;100.00;101362.06;5066674;28;20107;-81
2022/03/16 05:40:18;;;;;;;0.50;0.50;;;;;;;-2.94;100.00;101338.72;5029492;28;20120;-81
2022/03/16 05:42:44;;;;;;;0.50;0.50;;;;;;;-2.96;100.00;101359.88;5064302;28;20118;-81
2022/03/16 05:45:10;;;;;;;0.50;0.50;;;;;;;-2.91;100.00;101375.41;5066357;28;20465;-81
2022/03/16 05:47:40;;;;;;;0.40;0.40;;;;;;;-2.96;100.00;101370.38;5029685;28;20051;-81
2022/03/16 05:50:06;;;;;;;0.50;0.50;;;;;;;-2.97;100.00;101365.19;5065553;28;20501;-81
2022/03/16 05:52:32;;;;;;;0.50;0.50;;;;;;;-3.07;100.00;101358.66;5049550;28;20135;-81
2022/03/16 05:54:58;;;;;;;0.50;0.50;;;;;;;-3.01;100.00;101366.28;5048115;28;20112;-81
2022/03/16 05:57:24;;;;;;;0.50;0.50;;;;;;;-2.94;100.00;101373.81;5032014;28;20032;-81
2022/03/16 05:59:50;;;;;;;0.95;0.95;;;;;;;-2.94;100.00;101378.19;5061457;28;20100;-82
2022/03/16 06:02:16;;;;;;;0.50;0.50;;;;;;;-2.93;100.00;101393.91;5024464;28;20028;-82
2022/03/16 06:04:45;;;;;;;0.50;0.50;;;;;;;-3.12;100.00;101370.28;5043400;28;20449;-82
2022/03/16 06:07:11;;;;;;;0.47;0.47;;;;;;;-3.32;100.00;101346.69;5040545;28;20470;-82
2022/03/16 06:09:37;;;;;;;0.50;0.50;;;;;;;-3.13;100.00;101391.38;5026391;28;20111;-82
2022/03/16 06:12:04;;;;;;;0.50;0.50;;;;;;;-3.23;100.00;101384.84;5041218;28;20547;-81
2022/03/16 06:14:30;;;;;;;0.50;0.50;;;;;;;-3.58;100.00;101361.88;5057824;28;20040;-82
2022/03/16 06:16:56;;;;;;;0.50;0.50;;;;;;;-3.38;100.00;101399.56;5043579;28;20040;-82
2022/03/16 06:19:23;;;;;;;0.50;0.50;;;;;;;-3.19;100.00;101395.16;5042666;28;20025;-81
2022/03/16 06:21:49;;;;;;;0.50;0.50;;;;;;;-3.03;100.00;101402.31;5041804;28;20044;-82
2022/03/16 06:24:15;;;;;;;0.50;0.50;;;;;;;-2.97;100.00;101397.59;5050346;28;20154;-82
2022/03/16 06:26:41;;;;;;;0.50;0.50;;;;;;;-2.91;100.00;101420.13;5023436;28;20032;-84
2022/03/16 06:29:10;;;;;;;0.50;0.50;;;;;;;-2.99;100.00;101425.78;5039723;28;20032;-81
2022/03/16 06:31:36;;;;;;;0.50;0.50;;;;;;;-3.19;100.00;101417.97;5058619;28;20036;-82
2022/03/16 06:34:02;;;;;;;0.50;0.50;;;;;;;-3.30;100.00;101415.00;5041749;28;20105;-81
2022/03/16 06:36:28;;;;;;;0.50;0.50;;;;;;;-3.39;100.00;101435.50;5057164;28;20695;-82
2022/03/16 06:38:54;;;;;;;0.50;0.50;;;;;;;-3.39;100.00;101445.16;5039026;28;20024;-82
2022/03/16 06:41:20;;;;;;;0.50;0.50;;;;;;;-3.33;100.00;101452.81;5040051;28;20467;-82
2022/03/16 06:43:46;;;;;;;0.50;0.50;;;;;;;-3.41;100.00;101432.13;5043431;28;20051;-82
2022/03/16 06:46:11;;;;;;;0.50;0.50;;;;;;;-3.23;100.00;101456.69;5045362;28;20474;-82
2022/03/16 06:48:37;;;;;;;0.50;0.50;;;;;;;-3.30;100.00;101450.03;5063716;28;20480;-82
2022/03/16 06:51:03;;;;;;;0.50;0.50;;;;;;;-3.30;100.00;101459.69;5048348;28;20024;-82
2022/03/16 06:53:28;;;;;;;0.50;0.50;;;;;;;-3.38;100.00;101441.63;5033260;28;20032;-81
2022/03/16 06:55:54;;;;;;;0.50;0.50;;;;;;;-3.27;100.00;101476.19;5030358;28;20032;-83
2022/03/16 06:58:20;;;;;;;0.50;0.50;;;;;;;-3.32;100.00;101473.75;5044642;28;20470;-82
2022/03/16 07:00:46;;;;;;;0.50;0.50;;;;;;;-3.23;100.00;101480.38;5060461;28;20047;-83
2022/03/16 07:03:11;;;;;;;0.50;0.50;;;;;;;-3.31;100.00;101469.34;5063950;28;20033;-82
2022/03/16 07:05:39;;;;;;;0.50;0.50;;;;;;;-3.31;100.00;101461.44;5060323;28;20282;-81
2022/03/16 07:08:08;;;;;;;0.50;0.50;;;;;;;-3.20;100.00;101488.13;5042596;28;20050;-82
2022/03/16 07:10:37;;;;;;;0.50;0.50;;;;;;;-3.20;100.00;101482.88;5041374;28;20037;-83
2022/03/16 07:13:03;;;;;;;0.50;0.50;;;;;;;-3.23;100.00;101504.03;5025915;28;20036;-83
2022/03/16 07:15:31;;;;;;;0.60;0.60;;;;;;;-3.28;100.00;101487.63;5055930;28;20039;-82
2022/03/16 07:17:57;;;;;;;0.50;0.50;;;;;;;-3.23;100.00;101469.00;5067854;28;20072;-82
2022/03/16 07:20:23;;;;;;;0.50;0.50;;;;;;;-2.94;100.00;101494.84;5053756;28;20063;-82
2022/03/16 07:23:07;;;;;;;0.50;0.50;;;;;;;-2.92;100.00;101476.34;5068548;28;20093;-82
2022/03/16 07:25:33;;;;;;;0.50;0.50;;;;;;;-2.77;100.00;101495.81;5051501;28;20040;-82
2022/03/16 07:27:59;;;;;;;0.50;0.50;;;;;;;-2.76;100.00;101482.56;5050894;28;20043;-82
2022/03/16 07:30:25;;;;;;;0.50;0.50;;;;;;;-2.72;100.00;101481.53;5049610;28;20029;-82
2022/03/16 07:32:50;;;;;;;0.50;0.50;;;;;;;-2.59;100.00;101502.84;5048773;28;20421;-82
2022/03/16 07:35:16;;;;;;;0.40;0.40;;;;;;;-2.62;100.00;101489.84;5064197;28;20385;-82
2022/03/16 07:37:42;;;;;;;0.50;0.50;;;;;;;-2.44;100.00;101501.25;5037394;28;20033;-82
2022/03/16 07:40:09;;;;;;;0.50;0.50;;;;;;;-2.13;100.00;101520.84;5066767;28;20377;-82
2022/03/16 07:42:35;;;;;;;0.50;0.50;;;;;;;-2.09;100.00;101527.66;5034954;28;20029;-82
2022/03/16 07:45:01;;;;;;;0.50;0.50;;;;;;;-2.02;100.00;101529.06;5032587;28;20075;-83
2022/03/16 07:47:26;;;;;;;0.50;0.50;;;;;;;-1.99;100.00;101531.53;5075617;28;20036;-82
2022/03/16 07:49:53;;;;;;;0.50;0.50;;;;;;;-1.99;100.00;101526.28;5050928;28;20067;-82
2022/03/16 07:52:21;;;;;;;0.50;0.50;;;;;;;-1.72;100.00;101510.00;5075463;28;20078;-81
2022/03/16 07:54:47;;;;;;;0.50;0.50;;;;;;;-1.31;100.00;101507.00;5033024;28;20131;-82
2022/03/16 07:57:12;;;;;;;0.60;0.60;;;;;;;-0.82;100.00;101499.06;5051969;28;20446;-82
2022/03/16 07:59:38;;;;;;;0.50;0.50;;;;;;;-0.23;100.00;101498.38;5063671;28;20028;-82
2022/03/16 08:02:04;;;;;;;0.50;0.50;;;;;;;-0.48;100.00;101520.06;5041516;28;20060;-82
2022/03/16 08:04:30;;;;;;;0.60;0.60;;;;;;;-0.32;100.00;101509.47;5041435;28;20131;-83
2022/03/16 08:06:55;;;;;;;0.60;0.60;;;;;;;0.15;100.00;101528.81;5060986;28;20538;-82
2022/03/16 08:09:21;;;;;;;0.60;0.60;;;;;;;1.22;100.00;101514.34;5061832;28;20039;-82
2022/03/16 08:11:47;;;;;;;0.60;0.60;;;;;;;1.38;100.00;101534.59;5035556;28;20150;-83
2022/03/16 08:14:15;;;;;;;0.60;0.60;;;;;;;2.24;100.00;101542.22;5048515;28;20469;-82
2022/03/16 08:16:43;;;;;;;0.70;0.70;;;;;;;3.56;96.20;101535.69;5052420;28;21928;-83
2022/03/16 08:19:09;;;;;;;0.60;0.60;;;;;;;4.02;93.29;101532.31;5032157;28;20025;-83
2022/03/16 08:21:35;;;;;;;0.70;0.70;;;;;;;4.99;87.43;101505.28;5050637;28;20445;-82
2022/03/16 08:24:00;;;;;;;0.77;0.77;;;;;;;6.24;82.24;101538.72;5035960;28;20035;-82
2022/03/16 08:26:26;;;;;;;0.60;0.60;;;;;;;6.83;79.29;101534.66;5045112;28;20465;-80
2022/03/16 08:28:52;;;;;;;0.70;0.70;;;;;;;7.38;77.09;101550.34;5029753;28;20028;-80
2022/03/16 08:31:18;;;;;;;0.80;0.80;;;;;;;7.73;76.93;101536.53;5046929;28;20480;-79
2022/03/16 08:33:44;;;;;;;0.70;0.70;;;;;;;7.90;76.71;101551.88;5060816;28;20461;-79
2022/03/16 08:36:11;;;;;;;0.70;0.70;;;;;;;8.41;76.26;101558.00;5068600;28;20043;-79
2022/03/16 08:38:37;;;;;;;0.57;0.57;;;;;;;8.95;77.42;101561.03;5055664;28;20036;-79
2022/03/16 08:41:06;;;;;;;0.57;0.57;;;;;;;7.94;81.68;101568.53;5063367;28;20489;-79
2022/03/16 08:43:33;;;;;;;0.50;0.50;;;;;;;7.62;83.28;101566.06;5060254;28;20028;-81
2022/03/16 08:45:59;;;;;;;0.50;0.50;;;;;;;6.71;87.05;101571.28;5046818;28;20381;-81
2022/03/16 08:48:25;;;;;;;0.70;0.70;;;;;;;7.38;87.93;101586.00;5047826;28;20064;-81
2022/03/16 08:50:51;;;;;;;0.60;0.60;;;;;;;8.71;83.46;101581.13;5050033;28;20478;-81
2022/03/16 08:53:17;;;;;;;0.80;0.80;;;;;;;9.43;82.48;101582.31;5031543;28;20039;-81
2022/03/16 08:55:42;;;;;;;0.70;0.70;;;;;;;10.01;80.58;101588.34;5052384;28;20040;-81
2022/03/16 08:58:08;;;;;;;0.50;0.50;;;;;;;9.60;81.73;101577.97;5065880;28;20020;-80
2022/03/16 09:00:34;;;;;;;0.60;0.60;;;;;;;9.62;82.13;101593.94;5067157;28;20106;-81
2022/03/16 09:02:59;;;;;;;0.70;0.70;;;;;;;10.04;81.73;101594.25;5051650;28;20485;-81
2022/03/16 09:05:26;;;;;;;0.60;0.60;;;;;;;10.08;80.70;101595.66;5060957;28;20036;-81
2022/03/16 09:07:51;;;;;;;0.45;0.45;;;;;;;8.78;83.16;101600.16;5036264;28;20032;-81
2022/03/16 09:10:17;;;;;;;0.50;0.50;;;;;;;8.03;86.24;101604.34;5051729;28;20046;-82
2022/03/16 09:12:43;;;;;;;0.60;0.60;;;;;;;7.48;87.57;101608.28;5029567;28;20035;-82
2022/03/16 09:15:09;;;;;;;2.80;1.17;;;;;;;7.81;86.67;101611.63;5063442;28;20032;-81
2022/03/16 09:17:35;;;;;;;0.75;0.75;;;;;;;9.49;82.75;101614.94;5065287;28;20060;-82
2022/03/16 09:20:02;;;;;;;0.70;0.70;;;;;;;10.41;81.55;101624.75;5048553;28;20052;-81
2022/03/16 09:22:28;;;;;;;0.70;0.70;;;;;;;11.09;77.20;101619.56;5035699;28;20046;-81
2022/03/16 09:24:56;;;;;;;0.80;0.80;;;;;;;12.77;73.95;101622.31;5050499;28;20115;-82
2022/03/16 09:27:23;;;;;;;0.80;0.80;;;;;;;13.95;70.95;101621.72;5048135;28;20032;-80
2022/03/16 09:29:49;;;;;;;0.80;0.80;;;;;;;14.75;67.53;101623.22;5036429;28;20038;-80
2022/03/16 09:32:14;;;;;;;0.80;0.80;;;;;;;14.81;65.89;101630.59;5058511;28;20032;-80
2022/03/16 09:34:41;;;;;;;0.70;0.70;;;;;;;15.22;65.70;101632.94;5052903;28;20033;-81
2022/03/16 09:37:08;;;;;;;0.70;0.70;;;;;;;15.60;64.00;101639.09;5031990;28;20050;-81
2022/03/16 09:39:34;;;;;;;0.80;0.80;;;;;;;15.47;63.13;101629.97;5033381;28;20589;-81
2022/03/16 09:42:00;;;;;;;0.70;0.70;;;;;;;15.60;65.06;101643.69;5068131;28;20470;-81
2022/03/16 09:44:28;;;;;;;0.90;0.90;;;;;;;15.95;63.17;101646.69;5050195;28;20039;-84
2022/03/16 09:46:54;;;;;;;0.80;0.80;;;;;;;15.84;63.30;101631.75;5041972;28;20082;-85
2022/03/16 09:49:20;;;;;;;0.80;0.80;;;;;;;15.84;64.61;101639.88;5066434;28;20032;-85
2022/03/16 09:51:45;;;;;;;0.70;0.70;;;;;;;16.22;64.40;101646.00;5060325;28;20377;-85
2022/03/16 09:54:11;;;;;;;0.80;0.80;;;;;;;16.47;63.64;101632.03;5032909;28;20048;-85
2022/03/16 09:56:38;;;;;;;0.90;0.90;;;;;;;16.70;63.10;101643.56;5064619;28;20038;-85
2022/03/16 09:59:04;;;;;;;0.80;0.80;;;;;;;16.92;63.14;101635.41;5051039;28;20029;-84
2022/03/16 10:01:29;;;;;;;0.80;0.80;;;;;;;17.13;64.09;101635.38;5069528;28;20044;-86
2022/03/16 10:04:06;;;;;;;0.82;0.82;;;;;;;17.68;62.68;101642.84;5053862;28;20450;-85
2022/03/16 10:06:35;;;;;;;0.80;0.80;;;;;;;18.18;62.95;101644.31;5063678;28;20592;-84
2022/03/16 10:15:10;;;;;;;0.70;0.70;;;;;;;20.01;61.30;101640.28;5065134;28;20098;-86
2022/03/16 10:17:43;;;;;;;0.80;0.80;;;;;;;19.91;59.81;101643.47;5071183;28;20078;-86
2022/03/16 10:20:10;;;;;;;0.88;0.88;;;;;;;19.99;58.71;101637.75;5034641;28;20029;-87
2022/03/16 10:22:38;;;;;;;0.90;0.90;;;;;;;20.09;60.01;101640.88;5068414;28;20040;-87
2022/03/16 10:25:08;;;;;;;0.80;0.80;;;;;;;19.85;59.80;101615.16;5069737;28;20043;-86
2022/03/16 10:27:37;;;;;;;1.00;0.98;;;;;;;20.29;61.01;101631.72;5070242;28;20029;-86
2022/03/16 10:30:08;;;;;;;0.82;0.82;;;;;;;20.48;55.02;101636.25;5053852;28;20189;-87
2022/03/16 10:32:34;;;;;;;0.80;0.80;;;;;;;20.49;56.39;101632.44;5053417;28;20036;-86
2022/03/16 10:35:05;;;;;;;1.67;0.80;;;;;;;20.38;54.27;101644.06;5069837;28;20024;-87
2022/03/16 10:37:32;;;;;;;3.80;1.27;;;;;;;20.23;57.47;101638.91;5037098;28;20028;-86
2022/03/16 10:39:58;;;;;;;1.85;1.35;;;;;;;20.32;55.77;101643.06;5062950;28;20042;-87
2022/03/16 10:48:13;;;;;;;9.48;2.20;;;;;;;20.29;55.52;101634.44;5068043;28;20040;-81
2022/03/16 10:50:43;;;;;;;9.20;1.92;;;;;;;20.49;56.25;101648.84;5058973;28;20028;-82
2022/03/16 10:53:10;;;;;;;4.07;1.90;;;;;;;20.52;56.29;101650.28;5035294;28;20036;-80
2022/03/16 10:55:38;;;;;;;8.10;2.28;;;;;;;20.52;53.08;101639.34;5054989;28;20194;-85
2022/03/16 10:58:06;;;;;;;4.03;1.83;;;;;;;20.75;54.84;101655.22;5071732;28;20040;-82
2022/03/16 11:00:33;;;;;;;6.63;2.13;;;;;;;20.46;55.39;101638.34;5069941;28;20478;-81
2022/03/16 11:03:02;;;;;;;6.85;2.33;;;;;;;20.94;57.44;101659.69;5072697;28;20115;-81
2022/03/16 11:05:28;;;;;;;7.00;1.95;;;;;;;21.19;55.65;101656.91;5054305;28;20426;-80
2022/03/16 11:07:54;;;;;;;7.45;3.75;;;;;;;21.17;52.34;101650.88;5069228;28;20165;-80
2022/03/16 11:10:20;;;;;;;9.07;2.63;;;;;;;20.82;55.79;101655.97;5036844;28;20035;-81
2022/03/16 11:15:30;;;;;;;6.30;1.92;;;;;;;21.01;52.72;101655.00;5064988;28;20149;-82
2022/03/16 11:17:56;;;;;;;4.97;1.67;;;;;;;20.90;51.55;101635.72;5069330;28;20386;-82
2022/03/16 11:20:22;;;;;;;5.38;1.75;;;;;;;20.92;48.97;101659.06;5070948;28;20028;-83
2022/03/16 11:25:51;;;;;;;7.25;1.67;;;;;;;21.16;51.46;101670.22;5072386;28;20117;-82
2022/03/16 11:28:23;;;;;;;5.15;1.73;;;;;;;21.32;52.61;101671.53;5054461;28;20028;-81
2022/03/16 11:30:49;;;;;;;11.20;2.22;;;;;;;21.70;53.33;101668.66;5050345;28;20526;-84
2022/03/16 11:33:16;;;;;;;8.85;1.80;;;;;;;21.80;51.08;101676.34;5048973;28;20035;-79
2022/03/16 11:35:47;;;;;;;4.63;1.70;;;;;;;21.73;49.70;101676.41;5066038;28;20406;-83